Terminal Aerodrome Forecast
Issued by NWS Sterling, VA

Current Version | Previous Version | Graphics & Text | Print | Product List | Glossary On
Versions: 1 2 3 4 5 6 7 8 9 10 11 12 13 14 15 16 17 18 19 20 21 22 23 24 25 26 27 28 29 30
461
FTUS41 KLWX 212127 AAB
TAFIAD
TAF AMD
KIAD 212127Z 2121/2224 36010KT 2SM -DZ BR BKN006 OVC012
     FM220100 01007KT 3SM -SHRA BR OVC006
     FM221200 35006KT 3SM BR OVC008
     FM221600 34007KT 3SM -SHRA OVC020
     FM222000 33008KT 5SM -SHRA OVC040=

USA.gov is the U.S. government's official web portal to all federal, state and local government web resources and services.